Park Hills, Illinois
Current Conditions -  °F | °C
As of 7:35 PM on Friday 21 Nov 2014 (Local Time) from K1H2 Reporting Station
Overcast Overcast  
Wind Chill: 29°   Ceiling: 3400
Heat Index: 37°   Visibility: NA
Dew Point: 15°   Wind: 12mph
Humidity: 40%   Direction: 140°SE
Pressure: 30.33"   Gusts: NA
Location:  39.1183°N, 88.6059°W
Report Text: K1H2 220135Z AUTO 14010KT BKN034 OVC042 03/M10 A3033 RMK AO2 T00271097 PWINO
Loading
Personal Weather Stations






























Interactive Weather Map New forecast layout! Learn more

10-Day Weather Forecast

Advertisements
Track Severe Weather on mobile